createdAt,value
2023-05-02T00:00:03.872Z,0.58
2023-05-02T00:01:03.970Z,0.60
2023-05-02T00:02:04.152Z,0.58
2023-05-02T00:03:04.265Z,0.59
2023-05-02T00:04:04.506Z,0.59
2023-05-02T00:05:04.397Z,0.57
2023-05-02T00:06:04.572Z,0.59
2023-05-02T00:07:04.623Z,0.60
2023-05-02T00:08:04.749Z,0.59
2023-05-02T00:09:04.853Z,0.58
2023-05-02T00:10:04.982Z,0.59
2023-05-02T00:11:05.075Z,0.60
2023-05-02T00:12:05.172Z,0.59
2023-05-02T00:13:05.549Z,0.58
2023-05-02T00:14:05.405Z,0.59
2023-05-02T00:15:05.508Z,0.59
2023-05-02T00:16:05.616Z,0.59
2023-05-02T00:17:05.813Z,0.58
2023-05-02T00:18:05.885Z,0.59
2023-05-02T00:19:05.944Z,0.59
2023-05-02T00:20:06.057Z,0.60
2023-05-02T00:21:06.173Z,0.60
2023-05-02T00:22:06.408Z,0.59
2023-05-02T00:23:06.391Z,0.59
2023-05-02T00:24:06.585Z,0.59
2023-05-02T00:25:06.689Z,0.59
2023-05-02T00:26:06.798Z,0.60
2023-05-02T00:27:06.865Z,0.59
2023-05-02T00:28:06.963Z,0.59
2023-05-02T00:29:07.083Z,0.60
2023-05-02T00:30:07.185Z,0.60
2023-05-02T00:31:07.353Z,0.59
2023-05-02T00:32:07.492Z,0.60
2023-05-02T00:33:07.620Z,0.59
2023-05-02T00:34:07.632Z,0.59
2023-05-02T00:35:07.745Z,0.60
2023-05-02T00:36:07.848Z,0.60
2023-05-02T00:37:07.952Z,0.60
2023-05-02T00:38:08.082Z,0.59
2023-05-02T00:39:08.201Z,0.59
2023-05-02T00:40:08.368Z,0.60
2023-05-02T00:41:08.468Z,0.58
2023-05-02T00:42:08.539Z,0.57
2023-05-02T00:43:08.636Z,0.59
2023-05-02T00:44:08.762Z,0.60
2023-05-02T00:45:08.858Z,0.60
2023-05-02T00:46:09.042Z,0.60
2023-05-02T00:47:09.085Z,0.59
2023-05-02T00:48:09.279Z,0.59
2023-05-02T00:49:09.311Z,0.59
2023-05-02T00:50:09.433Z,0.59
2023-05-02T00:51:09.542Z,0.60
2023-05-02T00:52:09.738Z,0.60
2023-05-02T00:53:09.783Z,0.58
2023-05-02T00:54:09.952Z,0.60
2023-05-02T00:55:09.982Z,0.58
2023-05-02T00:56:10.096Z,0.61
2023-05-02T00:57:10.200Z,0.59
2023-05-02T00:58:10.312Z,0.59
2023-05-02T00:59:10.559Z,0.59
2023-05-02T01:00:10.552Z,0.58
2023-05-02T01:01:10.715Z,0.59
2023-05-02T01:02:10.896Z,0.60
2023-05-02T01:03:10.926Z,0.60
2023-05-02T01:04:11.157Z,0.59
2023-05-02T01:05:11.132Z,0.60
2023-05-02T01:06:11.301Z,0.60
2023-05-02T01:07:11.342Z,0.59
2023-05-02T01:08:11.472Z,0.59
2023-05-02T01:09:11.584Z,0.60
2023-05-02T01:10:11.704Z,0.60
2023-05-02T01:11:11.806Z,0.59
2023-05-02T01:12:11.921Z,0.59
2023-05-02T01:13:12.051Z,0.61
2023-05-02T01:14:12.184Z,0.60
2023-05-02T01:15:12.280Z,0.59
2023-05-02T01:16:12.423Z,0.58
2023-05-02T01:17:12.518Z,0.59
2023-05-02T01:18:12.654Z,0.59
2023-05-02T01:19:12.743Z,0.59
2023-05-02T01:20:12.857Z,0.59
2023-05-02T01:21:12.974Z,0.58
2023-05-02T01:22:13.093Z,0.58
2023-05-02T01:23:13.190Z,0.59
2023-05-02T01:24:13.312Z,0.58
2023-05-02T01:25:13.424Z,0.59
2023-05-02T01:26:13.543Z,0.59
2023-05-02T01:27:14.564Z,0.58
2023-05-02T01:28:13.796Z,0.58
2023-05-02T01:29:13.889Z,0.58
2023-05-02T01:30:14.013Z,0.58
2023-05-02T01:31:14.142Z,0.58
2023-05-02T01:32:14.220Z,0.58
2023-05-02T01:33:14.474Z,0.58
2023-05-02T01:34:14.450Z,0.57
2023-05-02T01:35:14.631Z,0.59
2023-05-02T01:36:14.678Z,0.59
2023-05-02T01:37:14.798Z,0.58
2023-05-02T01:38:14.910Z,0.58
2023-05-02T01:39:15.050Z,0.59
2023-05-02T01:40:15.158Z,0.58
2023-05-02T01:41:15.277Z,0.59
2023-05-02T01:42:15.380Z,0.60
2023-05-02T01:43:15.509Z,0.57
2023-05-02T01:44:15.631Z,0.59
2023-05-02T01:45:15.747Z,0.58
2023-05-02T01:46:15.966Z,0.58
2023-05-02T01:47:16.026Z,0.58
2023-05-02T01:48:16.085Z,0.58
2023-05-02T01:49:16.185Z,0.58
2023-05-02T01:50:16.293Z,0.59
2023-05-02T01:51:16.400Z,0.58
2023-05-02T01:52:16.522Z,0.58
2023-05-02T01:53:16.636Z,0.58
2023-05-02T01:54:17.073Z,0.58
2023-05-02T01:55:16.867Z,0.59
2023-05-02T01:56:16.965Z,0.59
2023-05-02T01:57:17.077Z,0.58
2023-05-02T01:58:17.199Z,0.58
2023-05-02T01:59:17.391Z,0.60
2023-05-02T02:00:17.429Z,0.59
2023-05-02T02:01:17.589Z,0.58
2023-05-02T02:02:17.720Z,0.58
2023-05-02T02:03:17.813Z,0.60
2023-05-02T02:04:17.904Z,0.57
2023-05-02T02:05:17.982Z,0.59
2023-05-02T02:06:18.163Z,0.59
2023-05-02T02:07:18.209Z,0.60
2023-05-02T02:08:18.324Z,0.58
2023-05-02T02:09:18.443Z,0.59
2023-05-02T02:10:18.566Z,0.57
2023-05-02T02:11:18.669Z,0.59
2023-05-02T02:12:18.815Z,0.59
2023-05-02T02:13:18.898Z,0.58
2023-05-02T02:14:19.576Z,0.58
2023-05-02T02:15:19.132Z,0.59
2023-05-02T02:16:19.285Z,0.58
2023-05-02T02:17:20.100Z,0.58
2023-05-02T02:18:19.446Z,0.59
2023-05-02T02:19:19.562Z,0.59
2023-05-02T02:20:19.666Z,0.57
2023-05-02T02:21:19.786Z,0.57
2023-05-02T02:22:19.957Z,0.58
2023-05-02T02:23:20.001Z,0.57
2023-05-02T02:24:20.110Z,0.59
2023-05-02T02:25:20.219Z,0.59
2023-05-02T02:26:20.339Z,0.58
2023-05-02T02:27:20.468Z,0.59
2023-05-02T02:28:21.090Z,0.58
2023-05-02T02:29:20.670Z,0.59
2023-05-02T02:30:20.775Z,0.59
2023-05-02T02:31:21.219Z,0.58
2023-05-02T02:32:21.005Z,0.58
2023-05-02T02:33:21.130Z,0.59
2023-05-02T02:34:21.225Z,0.59
2023-05-02T02:35:21.336Z,0.57
2023-05-02T02:36:21.441Z,0.58
2023-05-02T02:37:21.549Z,0.58
2023-05-02T02:38:21.759Z,0.58
2023-05-02T02:39:21.778Z,0.58
2023-05-02T02:40:21.899Z,0.57
2023-05-02T02:41:22.019Z,0.58
2023-05-02T02:42:22.126Z,0.58
2023-05-02T02:43:22.244Z,0.57
2023-05-02T02:44:22.355Z,0.59
2023-05-02T02:45:22.467Z,0.58
2023-05-02T02:46:22.687Z,0.58
2023-05-02T02:47:23.586Z,0.57
2023-05-02T02:48:22.807Z,0.58
2023-05-02T02:49:22.933Z,0.57
2023-05-02T02:50:23.044Z,0.58
2023-05-02T02:51:23.163Z,0.59
2023-05-02T02:52:23.278Z,0.57
2023-05-02T02:53:24.291Z,0.59
2023-05-02T02:54:27.108Z,0.57
2023-05-02T02:55:23.600Z,0.61
2023-05-02T02:56:23.605Z,0.58
2023-05-02T02:57:23.649Z,0.57
2023-05-02T02:58:23.704Z,0.57
2023-05-02T02:59:23.758Z,0.58
2023-05-02T03:00:23.800Z,0.58
2023-05-02T03:01:23.911Z,0.58
2023-05-02T03:02:23.906Z,0.57
2023-05-02T03:03:24.042Z,0.58
2023-05-02T03:04:24.010Z,0.58
2023-05-02T03:05:24.086Z,0.57
2023-05-02T03:06:24.168Z,0.58
2023-05-02T03:07:24.145Z,0.57
2023-05-02T03:08:24.193Z,0.57
2023-05-02T03:09:24.255Z,0.57
2023-05-02T03:10:24.299Z,0.58
2023-05-02T03:11:24.357Z,0.56
2023-05-02T03:12:24.401Z,0.57
2023-05-02T03:13:24.447Z,0.58
2023-05-02T03:14:24.490Z,0.57
2023-05-02T03:15:24.539Z,0.58
2023-05-02T03:16:24.684Z,0.58
2023-05-02T03:17:26.383Z,0.57
2023-05-02T03:18:24.718Z,0.57
2023-05-02T03:19:24.819Z,0.57
2023-05-02T03:20:24.981Z,0.57
2023-05-02T03:21:25.049Z,0.58
2023-05-02T03:22:25.166Z,0.57
2023-05-02T03:23:25.276Z,0.57
2023-05-02T03:24:25.422Z,0.58
2023-05-02T03:25:25.495Z,0.58
2023-05-02T03:26:25.617Z,0.57
2023-05-02T03:27:25.725Z,0.57
2023-05-02T03:28:25.847Z,0.57
2023-05-02T03:29:25.967Z,0.57
2023-05-02T03:30:26.149Z,0.57
2023-05-02T03:31:26.765Z,0.58
2023-05-02T03:32:26.359Z,0.57
2023-05-02T03:33:26.410Z,0.58
2023-05-02T03:34:26.528Z,0.58
2023-05-02T03:35:26.633Z,0.57
2023-05-02T03:36:26.744Z,0.57
2023-05-02T03:37:26.848Z,0.58
2023-05-02T03:38:26.963Z,0.57
2023-05-02T03:39:27.085Z,0.58
2023-05-02T03:40:27.194Z,0.56
2023-05-02T03:41:27.298Z,0.57
2023-05-02T03:42:27.424Z,0.58
2023-05-02T03:43:27.543Z,0.57
2023-05-02T03:44:27.655Z,0.57
2023-05-02T03:45:27.772Z,0.59
2023-05-02T03:46:27.925Z,0.57
2023-05-02T03:47:28.147Z,0.56
2023-05-02T03:48:28.112Z,0.57
2023-05-02T03:49:28.241Z,0.56
2023-05-02T03:50:28.435Z,0.57
2023-05-02T03:51:28.474Z,0.57
2023-05-02T03:52:28.699Z,0.56
2023-05-02T03:53:28.709Z,0.58
2023-05-02T03:54:28.835Z,0.57
2023-05-02T03:55:28.962Z,0.58
2023-05-02T03:56:29.076Z,0.58
2023-05-02T03:57:29.192Z,0.56
2023-05-02T03:58:29.302Z,0.55
2023-05-02T03:59:29.449Z,0.57
2023-05-02T04:00:29.548Z,0.58
2023-05-02T04:01:29.665Z,0.58
2023-05-02T04:02:29.965Z,0.57
2023-05-02T04:03:30.625Z,0.58
2023-05-02T04:04:30.025Z,0.57
2023-05-02T04:05:30.124Z,0.57
2023-05-02T04:06:30.316Z,0.57
2023-05-02T04:07:30.369Z,0.57
2023-05-02T04:08:30.468Z,0.59
2023-05-02T04:09:30.591Z,0.56
2023-05-02T04:10:30.704Z,0.57
2023-05-02T04:11:30.832Z,0.57
2023-05-02T04:12:30.954Z,0.57
2023-05-02T04:13:31.073Z,0.58
2023-05-02T04:14:31.191Z,0.57
2023-05-02T04:15:31.290Z,0.59
2023-05-02T04:16:31.453Z,0.57
2023-05-02T04:17:31.571Z,0.57
2023-05-02T04:18:31.653Z,0.56
2023-05-02T04:19:31.775Z,0.57
2023-05-02T04:20:31.905Z,0.56
2023-05-02T04:21:32.022Z,0.58
2023-05-02T04:22:32.131Z,0.58
2023-05-02T04:23:32.269Z,0.57
2023-05-02T04:24:32.383Z,0.57
2023-05-02T04:25:32.558Z,0.56
2023-05-02T04:26:32.614Z,0.56
2023-05-02T04:27:32.736Z,0.58
2023-05-02T04:28:32.870Z,0.55
2023-05-02T04:29:33.006Z,0.59
2023-05-02T04:30:33.153Z,0.56
2023-05-02T04:31:33.253Z,0.57
2023-05-02T04:32:33.388Z,0.57
2023-05-02T04:33:34.135Z,0.57
2023-05-02T04:34:33.589Z,0.56
2023-05-02T04:35:33.696Z,0.57
2023-05-02T04:36:33.834Z,0.56
2023-05-02T04:37:33.925Z,0.57
2023-05-02T04:38:34.036Z,0.56
2023-05-02T04:39:34.162Z,0.56
2023-05-02T04:40:34.277Z,0.56
2023-05-02T04:41:34.390Z,0.57
2023-05-02T04:42:34.506Z,0.56
2023-05-02T04:43:34.600Z,0.58
2023-05-02T04:44:34.709Z,0.56
2023-05-02T04:45:34.820Z,0.56
2023-05-02T04:46:35.008Z,0.58
2023-05-02T04:47:35.122Z,0.56
2023-05-02T04:48:35.304Z,0.56
2023-05-02T04:49:35.294Z,0.57
2023-05-02T04:50:35.407Z,0.58
2023-05-02T04:51:36.136Z,0.57
2023-05-02T04:52:35.640Z,0.56
2023-05-02T04:53:35.758Z,0.58
2023-05-02T04:54:35.860Z,0.57
2023-05-02T04:55:35.980Z,0.56
2023-05-02T04:56:36.103Z,0.57
2023-05-02T04:57:36.232Z,0.57
2023-05-02T04:58:36.329Z,0.56
2023-05-02T04:59:36.457Z,0.57
2023-05-02T05:00:36.564Z,0.57
2023-05-02T05:01:36.725Z,0.58
2023-05-02T05:02:36.899Z,0.56
2023-05-02T05:03:37.112Z,0.57
2023-05-02T05:04:37.038Z,0.57
2023-05-02T05:05:37.193Z,0.58
2023-05-02T05:06:37.261Z,0.56
2023-05-02T05:07:37.411Z,0.57
2023-05-02T05:08:37.515Z,0.58
2023-05-02T05:09:37.620Z,0.57
2023-05-02T05:10:37.742Z,0.57
2023-05-02T05:11:37.847Z,0.57
2023-05-02T05:12:37.953Z,0.56
2023-05-02T05:13:38.159Z,0.58
2023-05-02T05:14:38.209Z,0.55
2023-05-02T05:15:39.144Z,0.56
2023-05-02T05:16:38.474Z,0.57
2023-05-02T05:17:38.579Z,0.57
2023-05-02T05:18:38.671Z,0.56
2023-05-02T05:19:39.153Z,0.58
2023-05-02T05:20:38.915Z,0.60
2023-05-02T05:21:39.054Z,0.60
2023-05-02T05:22:39.148Z,0.63
2023-05-02T05:23:39.289Z,0.63
2023-05-02T05:24:39.393Z,0.63
2023-05-02T05:25:39.490Z,0.66
2023-05-02T05:26:39.611Z,0.67
2023-05-02T05:27:39.790Z,0.73
2023-05-02T05:28:39.865Z,0.72
2023-05-02T05:29:39.976Z,0.74
2023-05-02T05:30:40.160Z,0.77
2023-05-02T05:31:41.156Z,0.83
2023-05-02T05:32:41.107Z,0.88
2023-05-02T05:33:40.409Z,0.92
2023-05-02T05:34:40.467Z,1.00
2023-05-02T05:35:40.530Z,1.05
2023-05-02T05:36:40.695Z,1.10
2023-05-02T05:37:40.640Z,1.16
2023-05-02T05:38:40.690Z,1.22
2023-05-02T05:39:40.748Z,1.33
2023-05-02T05:40:41.656Z,1.41
2023-05-02T05:41:40.892Z,1.52
2023-05-02T05:42:40.968Z,1.59
2023-05-02T05:43:41.719Z,1.69
2023-05-02T05:44:41.168Z,1.87
2023-05-02T05:45:41.276Z,1.96
2023-05-02T05:46:41.421Z,2.18
2023-05-02T05:47:41.541Z,2.30
2023-05-02T05:48:41.590Z,2.43
2023-05-02T05:49:42.588Z,2.55
2023-05-02T05:50:41.804Z,2.65
2023-05-02T05:51:41.894Z,2.82
2023-05-02T05:52:41.984Z,3.00
2023-05-02T05:53:42.663Z,3.15
2023-05-02T05:54:42.172Z,3.18
2023-05-02T05:55:42.502Z,3.39
2023-05-02T05:56:43.171Z,3.62
2023-05-02T05:57:42.502Z,3.66
2023-05-02T05:58:42.513Z,4.02
2023-05-02T05:59:42.592Z,4.36
2023-05-02T06:00:42.672Z,4.44
2023-05-02T06:01:42.768Z,4.63
2023-05-02T06:02:42.954Z,4.94
2023-05-02T06:03:43.120Z,5.10
2023-05-02T06:04:43.020Z,5.12
2023-05-02T06:05:43.027Z,5.41
2023-05-02T06:06:43.122Z,5.83
2023-05-02T06:07:43.180Z,5.80
2023-05-02T06:08:43.246Z,6.00
2023-05-02T06:09:43.322Z,6.29
2023-05-02T06:10:43.379Z,6.53
2023-05-02T06:11:43.456Z,6.92
2023-05-02T06:12:43.510Z,7.09
2023-05-02T06:13:43.604Z,7.32
2023-05-02T06:14:43.680Z,7.77
2023-05-02T06:15:43.766Z,8.37
2023-05-02T06:16:43.776Z,8.14
2023-05-02T06:17:44.708Z,8.45
2023-05-02T06:18:43.870Z,8.71
2023-05-02T06:19:43.942Z,9.90
2023-05-02T06:20:44.018Z,9.40
2023-05-02T06:21:44.077Z,9.31
2023-05-02T06:22:44.183Z,9.00
2023-05-02T06:23:44.221Z,8.95
2023-05-02T06:24:44.340Z,9.70
2023-05-02T06:25:44.388Z,9.28
2023-05-02T06:26:44.465Z,9.13
2023-05-02T06:27:44.558Z,9.19
2023-05-02T06:28:45.184Z,8.94
2023-05-02T06:29:44.751Z,8.79
2023-05-02T06:30:44.854Z,8.81
2023-05-02T06:31:45.012Z,8.77
2023-05-02T06:32:45.090Z,9.05
2023-05-02T06:33:45.152Z,9.04
2023-05-02T06:34:45.268Z,8.83
2023-05-02T06:35:46.293Z,8.84
2023-05-02T06:36:45.331Z,8.83
2023-05-02T06:37:45.368Z,8.86
2023-05-02T06:38:45.419Z,8.89
2023-05-02T06:39:45.578Z,8.59
2023-05-02T06:40:45.459Z,8.57
2023-05-02T06:41:45.517Z,8.70
2023-05-02T06:42:45.540Z,8.59
2023-05-02T06:43:45.565Z,8.62
2023-05-02T06:44:45.613Z,8.67
2023-05-02T06:45:45.642Z,8.51
2023-05-02T06:46:45.757Z,8.63
2023-05-02T06:47:46.755Z,8.63
2023-05-02T06:48:45.754Z,8.51
2023-05-02T06:49:45.788Z,8.49
2023-05-02T06:50:45.837Z,8.32
2023-05-02T06:51:45.853Z,8.14
2023-05-02T06:52:45.994Z,7.99
2023-05-02T06:53:45.938Z,8.06
2023-05-02T06:54:45.974Z,8.05
2023-05-02T06:55:46.034Z,7.98
2023-05-02T06:56:46.043Z,8.10
2023-05-02T06:57:46.069Z,7.82
2023-05-02T06:58:46.123Z,7.59
2023-05-02T06:59:46.146Z,7.52
2023-05-02T07:00:46.275Z,7.65
2023-05-02T07:01:46.221Z,7.63
2023-05-02T07:02:46.274Z,7.64
2023-05-02T07:03:46.307Z,7.62
2023-05-02T07:04:46.503Z,7.40
2023-05-02T07:05:46.378Z,7.27
2023-05-02T07:06:46.477Z,7.30
2023-05-02T07:07:46.452Z,7.20
2023-05-02T07:08:47.187Z,7.05
2023-05-02T07:09:46.661Z,7.19
2023-05-02T07:10:46.565Z,6.86
2023-05-02T07:11:46.603Z,6.95
2023-05-02T07:12:46.666Z,6.94
2023-05-02T07:13:46.705Z,6.90
2023-05-02T07:14:46.789Z,6.83
2023-05-02T07:15:46.797Z,6.87
2023-05-02T07:16:46.984Z,6.71
2023-05-02T07:17:46.970Z,6.75
2023-05-02T07:18:46.981Z,6.73
2023-05-02T07:19:47.039Z,6.59
2023-05-02T07:20:47.114Z,6.65
2023-05-02T07:21:47.153Z,6.54
2023-05-02T07:22:47.213Z,6.51
2023-05-02T07:23:47.276Z,6.40
2023-05-02T07:24:47.333Z,6.60
2023-05-02T07:25:47.357Z,6.60
2023-05-02T07:26:47.422Z,6.70
2023-05-02T07:27:47.512Z,6.78
2023-05-02T07:28:47.609Z,7.02
2023-05-02T07:29:47.716Z,7.10
2023-05-02T07:30:47.880Z,7.33
2023-05-02T07:31:47.935Z,7.47
2023-05-02T07:32:48.045Z,7.55
2023-05-02T07:33:48.089Z,7.73
2023-05-02T07:34:48.161Z,7.96
2023-05-02T07:35:48.233Z,8.23
2023-05-02T07:36:48.303Z,8.23
2023-05-02T07:37:48.395Z,8.64
2023-05-02T07:38:48.466Z,8.69
2023-05-02T07:39:48.560Z,9.30
2023-05-02T07:40:48.603Z,9.21
2023-05-02T07:41:48.663Z,9.41
2023-05-02T07:42:48.735Z,9.72
2023-05-02T07:43:48.803Z,10.05
2023-05-02T07:44:48.864Z,10.06
2023-05-02T07:45:48.954Z,10.57
2023-05-02T07:46:49.836Z,10.60
2023-05-02T07:47:49.143Z,10.76
2023-05-02T07:48:49.088Z,11.22
2023-05-02T07:49:49.123Z,11.47
2023-05-02T07:50:49.185Z,11.41
2023-05-02T07:51:49.237Z,11.85
2023-05-02T07:52:49.279Z,11.98
2023-05-02T07:53:49.331Z,12.12
2023-05-02T07:54:49.374Z,12.38
2023-05-02T07:55:49.424Z,12.37
2023-05-02T07:56:49.470Z,12.86
2023-05-02T07:57:49.522Z,13.19
2023-05-02T07:58:49.564Z,13.56
2023-05-02T07:59:49.608Z,13.93
2023-05-02T08:00:49.663Z,14.00
2023-05-02T08:01:49.695Z,14.16
2023-05-02T08:02:49.796Z,14.36
2023-05-02T08:03:49.917Z,14.26
2023-05-02T08:04:49.868Z,13.36
2023-05-02T08:05:49.916Z,12.17
2023-05-02T08:06:50.116Z,11.46
2023-05-02T08:07:50.060Z,10.54
2023-05-02T08:08:50.143Z,9.84
2023-05-02T08:09:50.250Z,8.13
2023-05-02T08:10:50.340Z,6.53
2023-05-02T08:11:50.391Z,5.37
2023-05-02T08:12:50.468Z,5.57
2023-05-02T08:13:50.525Z,5.45
2023-05-02T08:14:50.607Z,4.86
2023-05-02T08:15:50.746Z,4.25
2023-05-02T08:16:51.994Z,3.35
2023-05-02T08:17:50.746Z,2.89
2023-05-02T08:18:50.739Z,3.03
2023-05-02T08:19:51.723Z,2.52
2023-05-02T08:20:50.846Z,2.14
2023-05-02T08:21:50.854Z,1.92
2023-05-02T08:22:50.901Z,1.73
2023-05-02T08:23:50.942Z,1.40
2023-05-02T08:24:50.984Z,1.41
2023-05-02T08:25:51.029Z,1.59
2023-05-02T08:26:51.094Z,1.46
2023-05-02T08:27:51.142Z,1.39
2023-05-02T08:28:51.198Z,1.52
2023-05-02T08:29:51.274Z,1.52
2023-05-02T08:30:51.348Z,1.50
2023-05-02T08:31:51.452Z,1.53
2023-05-02T08:32:51.538Z,1.62
2023-05-02T08:33:51.583Z,1.61
2023-05-02T08:34:51.572Z,1.63
2023-05-02T08:35:51.679Z,1.66
2023-05-02T08:36:51.753Z,1.71
2023-05-02T08:37:51.848Z,1.76
2023-05-02T08:38:52.734Z,1.83
2023-05-02T08:39:52.043Z,1.89
2023-05-02T08:40:52.069Z,1.95
2023-05-02T08:41:52.141Z,2.02
2023-05-02T08:42:52.175Z,2.10
2023-05-02T08:43:52.234Z,2.23
2023-05-02T08:44:52.310Z,2.31
2023-05-02T08:45:52.352Z,2.42
2023-05-02T08:46:52.380Z,2.46
2023-05-02T08:47:52.495Z,2.55
2023-05-02T08:48:52.446Z,2.62
2023-05-02T08:49:52.538Z,2.74
2023-05-02T08:50:52.523Z,2.90
2023-05-02T08:51:52.555Z,2.97
2023-05-02T08:52:52.582Z,3.16
2023-05-02T08:53:52.594Z,3.24
2023-05-02T08:54:52.608Z,3.38
2023-05-02T08:55:52.646Z,3.51
2023-05-02T08:56:52.658Z,3.67
2023-05-02T08:57:52.689Z,3.83
2023-05-02T08:58:52.701Z,3.97
2023-05-02T08:59:52.710Z,4.07
2023-05-02T09:00:52.765Z,4.20
2023-05-02T09:01:52.750Z,4.30
2023-05-02T09:02:52.883Z,4.48
2023-05-02T09:03:52.863Z,4.67
2023-05-02T09:04:52.869Z,4.87
2023-05-02T09:05:52.888Z,5.14
2023-05-02T09:06:53.013Z,5.15
2023-05-02T09:07:52.970Z,5.20
2023-05-02T09:08:53.012Z,5.40
2023-05-02T09:09:53.063Z,5.69
2023-05-02T09:10:53.131Z,5.91
2023-05-02T09:11:53.186Z,6.08
2023-05-02T09:12:53.241Z,6.18
2023-05-02T09:13:53.354Z,6.36
2023-05-02T09:14:53.402Z,6.52
2023-05-02T09:15:53.445Z,6.86
2023-05-02T09:16:53.632Z,6.71
2023-05-02T09:17:53.528Z,6.65
2023-05-02T09:18:53.506Z,6.24
2023-05-02T09:19:53.538Z,5.29
2023-05-02T09:20:53.661Z,4.87
2023-05-02T09:21:53.635Z,4.95
2023-05-02T09:22:53.700Z,4.79
2023-05-02T09:23:53.727Z,4.72
2023-05-02T09:24:53.783Z,4.26
2023-05-02T09:25:53.848Z,4.16
2023-05-02T09:26:53.878Z,3.97
2023-05-02T09:27:53.921Z,3.79
2023-05-02T09:28:53.959Z,3.80
2023-05-02T09:29:53.989Z,3.80
2023-05-02T09:30:54.053Z,3.77
2023-05-02T09:31:56.286Z,3.84
2023-05-02T09:32:54.272Z,3.81
2023-05-02T09:33:54.292Z,3.93
2023-05-02T09:34:54.296Z,3.98
2023-05-02T09:35:54.320Z,4.01
2023-05-02T09:36:54.775Z,4.12
2023-05-02T09:37:54.406Z,4.18
2023-05-02T09:38:54.446Z,4.33
2023-05-02T09:39:54.555Z,4.51
2023-05-02T09:40:54.647Z,4.53
2023-05-02T09:41:54.896Z,4.70
2023-05-02T09:42:54.762Z,4.80
2023-05-02T09:43:54.838Z,4.92
2023-05-02T09:44:55.031Z,5.14
2023-05-02T09:45:55.050Z,5.20
2023-05-02T09:46:55.085Z,5.26
2023-05-02T09:47:55.342Z,5.29
2023-05-02T09:48:55.225Z,5.67
2023-05-02T09:49:55.309Z,5.82
2023-05-02T09:50:55.383Z,5.90
2023-05-02T09:51:55.498Z,6.06
2023-05-02T09:52:55.536Z,6.33
2023-05-02T09:53:55.598Z,6.56
2023-05-02T09:54:55.673Z,6.67
2023-05-02T09:55:55.751Z,6.93
2023-05-02T09:56:55.835Z,7.21
2023-05-02T09:57:55.894Z,7.53
2023-05-02T09:58:55.977Z,7.79
2023-05-02T09:59:56.052Z,7.89
2023-05-02T10:00:56.132Z,8.15
2023-05-02T10:01:56.267Z,8.45
2023-05-02T10:02:56.316Z,8.64
2023-05-02T10:03:56.371Z,8.82
2023-05-02T10:04:56.395Z,9.24
2023-05-02T10:05:56.459Z,9.54
2023-05-02T10:06:56.512Z,9.50
2023-05-02T10:07:56.581Z,10.17
2023-05-02T10:08:56.638Z,10.48
2023-05-02T10:09:56.718Z,10.87
2023-05-02T10:10:56.808Z,11.06
2023-05-02T10:11:56.886Z,11.19
2023-05-02T10:12:56.947Z,11.02
2023-05-02T10:13:57.029Z,11.00
2023-05-02T10:14:57.117Z,11.09
2023-05-02T10:15:57.300Z,10.86
2023-05-02T10:16:57.271Z,10.63
2023-05-02T10:17:57.371Z,10.70
2023-05-02T10:18:57.423Z,10.51
2023-05-02T10:19:57.503Z,10.53
2023-05-02T10:20:57.593Z,10.74
2023-05-02T10:21:57.653Z,10.79
2023-05-02T10:22:57.709Z,10.53
2023-05-02T10:23:58.272Z,10.83
2023-05-02T10:24:57.971Z,10.56
2023-05-02T10:25:58.749Z,10.30
2023-05-02T10:26:57.911Z,10.37
2023-05-02T10:27:57.975Z,10.38
2023-05-02T10:28:58.024Z,10.27
2023-05-02T10:29:58.061Z,10.46
2023-05-02T10:30:58.101Z,9.98
2023-05-02T10:31:58.322Z,10.31
2023-05-02T10:32:58.201Z,10.17
2023-05-02T10:33:58.183Z,10.12
2023-05-02T10:34:58.359Z,10.25
2023-05-02T10:35:58.250Z,10.08
2023-05-02T10:36:58.233Z,10.01
2023-05-02T10:37:58.266Z,9.86
2023-05-02T10:38:58.286Z,9.87
2023-05-02T10:39:58.340Z,9.74
2023-05-02T10:40:58.342Z,9.80
2023-05-02T10:41:58.356Z,9.51
2023-05-02T10:42:58.378Z,9.60
2023-05-02T10:43:58.397Z,9.42
2023-05-02T10:44:58.750Z,9.55
2023-05-02T10:45:58.453Z,9.38
2023-05-02T10:46:58.712Z,9.33
2023-05-02T10:47:58.551Z,9.27
2023-05-02T10:48:59.584Z,9.29
2023-05-02T10:49:58.539Z,9.32
2023-05-02T10:50:58.563Z,9.23
2023-05-02T10:51:58.567Z,9.26
2023-05-02T10:52:58.585Z,9.21
2023-05-02T10:53:58.617Z,9.03
2023-05-02T10:54:58.770Z,8.95
2023-05-02T10:55:58.660Z,9.16
2023-05-02T10:56:58.670Z,8.96
2023-05-02T10:57:58.707Z,8.97
2023-05-02T10:58:58.697Z,8.96
2023-05-02T10:59:58.721Z,8.84
2023-05-02T11:00:58.756Z,8.65
2023-05-02T11:01:58.813Z,8.79
2023-05-02T11:02:58.863Z,8.61
2023-05-02T11:03:58.785Z,8.46
2023-05-02T11:04:59.020Z,8.48
2023-05-02T11:05:58.838Z,8.46
2023-05-02T11:06:58.845Z,8.42
2023-05-02T11:07:58.857Z,8.27
2023-05-02T11:08:58.878Z,8.40
2023-05-02T11:09:58.899Z,8.28
2023-05-02T11:10:58.900Z,8.19
2023-05-02T11:11:58.918Z,8.15
2023-05-02T11:12:59.012Z,8.08
2023-05-02T11:13:58.954Z,8.04
2023-05-02T11:14:59.165Z,8.01
2023-05-02T11:15:58.997Z,7.95
2023-05-02T11:16:59.198Z,7.86
2023-05-02T11:17:59.074Z,7.77
2023-05-02T11:18:59.026Z,7.65
2023-05-02T11:19:59.074Z,7.76
2023-05-02T11:20:59.034Z,7.72
2023-05-02T11:21:59.080Z,7.61
2023-05-02T11:22:59.067Z,7.67
2023-05-02T11:23:59.103Z,7.50
2023-05-02T11:24:59.279Z,7.59
2023-05-02T11:25:59.151Z,7.44
2023-05-02T11:26:59.171Z,7.56
2023-05-02T11:27:59.201Z,7.42
2023-05-02T11:28:59.218Z,7.36
2023-05-02T11:29:59.240Z,7.30
2023-05-02T11:30:59.297Z,7.28
2023-05-02T11:31:59.303Z,7.24
2023-05-02T11:32:59.447Z,7.32
2023-05-02T11:33:59.357Z,7.25
2023-05-02T11:34:59.502Z,7.21
2023-05-02T11:35:59.393Z,7.19
2023-05-02T11:36:59.421Z,7.16
2023-05-02T11:37:59.443Z,7.08
2023-05-02T11:38:59.476Z,6.99
2023-05-02T11:39:59.506Z,7.14
2023-05-02T11:40:59.566Z,6.97
2023-05-02T11:41:59.567Z,7.06
2023-05-02T11:42:59.606Z,6.97
2023-05-02T11:43:59.647Z,6.93
2023-05-02T11:44:59.857Z,6.97
2023-05-02T11:45:59.786Z,6.87
2023-05-02T11:46:59.767Z,6.91
2023-05-02T11:47:59.925Z,6.79
2023-05-02T11:48:59.844Z,6.77
2023-05-02T11:49:59.890Z,6.76
2023-05-02T11:50:59.912Z,6.91
2023-05-02T11:51:59.958Z,6.71
2023-05-02T11:52:59.992Z,6.74
2023-05-02T11:54:00.054Z,6.68
2023-05-02T11:55:00.995Z,6.56
2023-05-02T11:56:00.206Z,6.69
2023-05-02T11:57:00.165Z,6.48
2023-05-02T11:58:00.204Z,6.43
2023-05-02T11:59:00.257Z,6.52
2023-05-02T12:00:00.318Z,6.45
2023-05-02T12:01:00.381Z,6.39
2023-05-02T12:02:00.434Z,6.36
2023-05-02T12:03:00.539Z,6.45
2023-05-02T12:04:00.565Z,6.28
2023-05-02T12:05:00.799Z,6.30
2023-05-02T12:06:00.740Z,6.30
2023-05-02T12:07:00.690Z,6.09
2023-05-02T12:08:00.678Z,6.24
2023-05-02T12:09:00.724Z,6.10
2023-05-02T12:10:00.767Z,6.09
2023-05-02T12:11:00.807Z,6.06
2023-05-02T12:12:00.874Z,5.93
2023-05-02T12:13:00.903Z,5.90
2023-05-02T12:14:00.950Z,5.98
2023-05-02T12:15:01.225Z,5.86
2023-05-02T12:16:01.085Z,6.07
2023-05-02T12:17:01.093Z,5.98
2023-05-02T12:18:01.237Z,5.81
2023-05-02T12:19:01.325Z,5.83
2023-05-02T12:20:01.211Z,5.74
2023-05-02T12:21:01.247Z,5.74
2023-05-02T12:22:01.296Z,5.67
2023-05-02T12:23:01.347Z,5.64
2023-05-02T12:24:01.378Z,5.65
2023-05-02T12:25:01.670Z,5.66
2023-05-02T12:26:01.465Z,5.70
2023-05-02T12:27:01.505Z,5.57
2023-05-02T12:28:01.552Z,5.52
2023-05-02T12:29:01.600Z,5.56
2023-05-02T12:30:02.115Z,5.53
2023-05-02T12:31:01.702Z,5.52
2023-05-02T12:32:01.799Z,5.52
2023-05-02T12:33:01.891Z,5.46
2023-05-02T12:34:01.931Z,5.40
2023-05-02T12:35:01.900Z,5.54
2023-05-02T12:36:01.949Z,5.34
2023-05-02T12:37:01.997Z,5.44
2023-05-02T12:38:02.051Z,5.28
2023-05-02T12:39:02.165Z,5.44
2023-05-02T12:40:02.360Z,5.31
2023-05-02T12:41:02.202Z,5.37
2023-05-02T12:42:02.261Z,5.36
2023-05-02T12:43:02.313Z,5.26
2023-05-02T12:44:02.402Z,5.36
2023-05-02T12:45:02.439Z,5.25
2023-05-02T12:46:02.492Z,5.19
2023-05-02T12:47:02.640Z,5.26
2023-05-02T12:48:02.634Z,5.23
2023-05-02T12:49:02.674Z,5.25
2023-05-02T12:50:02.901Z,5.05
2023-05-02T12:51:02.865Z,5.12
2023-05-02T12:52:02.849Z,5.02
2023-05-02T12:53:02.907Z,5.09
2023-05-02T12:54:02.969Z,5.09
2023-05-02T12:55:03.088Z,5.04
2023-05-02T12:56:03.170Z,4.91
2023-05-02T12:57:03.165Z,4.97
2023-05-02T12:58:03.242Z,5.05
2023-05-02T12:59:03.301Z,4.98
2023-05-02T13:00:03.698Z,4.93
2023-05-02T13:01:03.516Z,4.99
2023-05-02T13:02:03.495Z,5.01
2023-05-02T13:03:03.718Z,4.92
2023-05-02T13:04:03.729Z,4.96
2023-05-02T13:05:03.885Z,4.93
2023-05-02T13:06:03.891Z,4.83
2023-05-02T13:07:03.859Z,4.81
2023-05-02T13:08:03.956Z,4.80
2023-05-02T13:09:04.001Z,4.77
2023-05-02T13:10:04.285Z,4.81
2023-05-02T13:11:04.191Z,4.69
2023-05-02T13:12:04.234Z,4.78
2023-05-02T13:13:04.308Z,4.71
2023-05-02T13:14:04.396Z,4.77
2023-05-02T13:15:04.556Z,4.70
2023-05-02T13:16:04.598Z,4.65
2023-05-02T13:17:04.760Z,4.65